CheckWX is a tool to help pilots better visualize weather data.  It is not intended as a substitute for an official pre-flight weather briefing.

05:16:44 UTC

KNEW METAR
Lakefront Airport
New Orleans, Louisiana, USA
Current

24 mins ago

KNEW 200453Z AUTO 15013KT 3SM BR OVC004 22/21 A2993 RMK AO2 SLP128 T02170206
Observed
Feb-20 @ 04:53 UTC
Wind
  • 150° at 13 KTS
Visibility
4,828 meters
Flight Rules
LIFR
Conditions
Mist
Cloud Levels
  • Overcast at 400' AGL
Temperature
22°C / 72°F
Dewpoint
21°C / 70°F
Humidity
94%
Altimeter
29.93" Hg
Pressure
1012.8 hPa
Previous

47 mins ago

KNEW 200430Z AUTO 15012KT 3SM BR OVC004 22/21 A2993 RMK AO2 T02170206
Observed
Feb-20 @ 04:30 UTC
Wind
  • 150° at 12 KTS
Visibility
4,828 meters
Flight Rules
LIFR
Conditions
Mist
Cloud Levels
  • Overcast at 400' AGL
Temperature
22°C / 72°F
Dewpoint
21°C / 70°F
Humidity
94%
Altimeter
29.93" Hg
Pressure
1013.52 hPa
Previous

1 hour ago

KNEW 200412Z AUTO 16009KT 2SM BR OVC004 21/21 A2993 RMK AO2 CIG 002V006 T02110206
Observed
Feb-20 @ 04:12 UTC
Wind
  • 160° at 9 KTS
Visibility
3,219 meters
Flight Rules
LIFR
Conditions
Mist
Cloud Levels
  • Overcast at 400' AGL
Temperature
21°C / 70°F
Dewpoint
21°C / 70°F
Humidity
100%
Altimeter
29.93" Hg
Pressure
1013.52 hPa